createdAt,value
2023-02-26T00:01:33.109Z,99997.03
2023-02-26T00:04:02.893Z,99993.78
2023-02-26T00:06:32.700Z,100004.28
2023-02-26T00:09:00.822Z,100004.00
2023-02-26T00:11:29.641Z,100012.81
2023-02-26T00:13:58.239Z,100014.63
2023-02-26T00:16:34.452Z,100003.78
2023-02-26T00:19:06.959Z,100021.00
2023-02-26T00:21:36.095Z,100012.19
2023-02-26T00:24:06.972Z,100018.69
2023-02-26T00:26:35.168Z,100020.22
2023-02-26T00:29:04.148Z,100021.41
2023-02-26T00:31:32.397Z,100033.44
2023-02-26T00:34:01.280Z,100035.81
2023-02-26T00:36:57.416Z,100038.81
2023-02-26T00:39:39.836Z,100042.38
2023-02-26T00:42:08.818Z,100046.66
2023-02-26T00:44:37.256Z,100050.31
2023-02-26T00:47:49.513Z,100051.00
2023-02-26T00:50:22.421Z,100052.59
2023-02-26T00:52:53.499Z,100070.41
2023-02-26T00:55:21.916Z,100064.41
2023-02-26T00:57:49.948Z,100070.03
2023-02-26T01:00:18.701Z,100078.81
2023-02-26T01:02:47.950Z,100073.81
2023-02-26T01:05:16.740Z,100084.41
2023-02-26T01:08:03.570Z,100100.09
2023-02-26T01:10:31.914Z,100081.25
2023-02-26T01:13:00.234Z,100098.19
2023-02-26T01:15:28.804Z,100093.13
2023-02-26T01:18:09.832Z,100116.09
2023-02-26T01:20:46.735Z,100113.63
2023-02-26T01:23:24.201Z,100123.06
2023-02-26T01:26:04.876Z,100131.00
2023-02-26T01:28:33.613Z,100143.50
2023-02-26T01:31:05.844Z,100152.28
2023-02-26T01:33:47.642Z,100158.31
2023-02-26T01:36:19.146Z,100160.84
2023-02-26T01:38:53.550Z,100179.47
2023-02-26T01:41:41.099Z,100184.78
2023-02-26T01:44:20.048Z,100203.19
2023-02-26T01:47:09.534Z,100216.31
2023-02-26T01:49:38.235Z,100215.25
2023-02-26T01:52:35.675Z,100226.06
2023-02-26T01:55:06.342Z,100229.66
2023-02-26T01:57:34.620Z,100239.50
2023-02-26T02:00:04.613Z,100256.88
2023-02-26T02:02:40.270Z,100272.53
2023-02-26T02:05:38.329Z,100281.09
2023-02-26T02:08:06.675Z,100291.59
2023-02-26T02:10:35.070Z,100305.91
2023-02-26T02:13:17.843Z,100300.16
2023-02-26T02:16:08.531Z,100309.81
2023-02-26T02:18:42.130Z,100305.34
2023-02-26T02:21:29.564Z,100320.63
2023-02-26T02:24:03.787Z,100336.72
2023-02-26T02:26:54.123Z,100346.38
2023-02-26T02:29:46.451Z,100353.56
2023-02-26T02:32:40.606Z,100355.28
2023-02-26T02:35:33.638Z,100364.47
2023-02-26T02:38:10.239Z,100374.13
2023-02-26T02:40:42.006Z,100363.53
2023-02-26T02:43:22.234Z,100365.66
2023-02-26T02:45:58.442Z,100381.88
2023-02-26T02:48:44.631Z,100388.09
2023-02-26T02:51:34.602Z,100390.47
2023-02-26T02:54:08.839Z,100394.81
2023-02-26T02:56:44.263Z,100386.56
2023-02-26T02:59:26.443Z,100388.59
2023-02-26T03:02:01.077Z,100386.63
2023-02-26T03:04:29.587Z,100393.75
2023-02-26T03:06:58.206Z,100394.81
2023-02-26T03:09:26.328Z,100402.22
2023-02-26T03:11:54.509Z,100398.47
2023-02-26T03:14:23.330Z,100400.38
2023-02-26T03:17:03.984Z,100410.59
2023-02-26T03:19:47.059Z,100409.03
2023-02-26T03:22:47.553Z,100408.56
2023-02-26T03:25:48.957Z,100409.38
2023-02-26T03:28:32.616Z,100411.50
2023-02-26T03:31:12.050Z,100417.59
2023-02-26T03:34:00.435Z,100421.16
2023-02-26T03:36:36.739Z,100413.22
2023-02-26T03:39:44.385Z,100423.94
2023-02-26T03:42:19.340Z,100419.13
2023-02-26T03:44:59.811Z,100413.44
2023-02-26T03:47:29.894Z,100419.59
2023-02-26T03:50:05.854Z,100427.72
2023-02-26T03:52:42.575Z,100427.72
2023-02-26T03:55:29.166Z,100431.22
2023-02-26T03:58:09.001Z,100426.00
2023-02-26T04:00:56.112Z,100423.13
2023-02-26T04:03:32.497Z,100421.31
2023-02-26T04:06:02.217Z,100435.47
2023-02-26T04:08:32.190Z,100429.75
2023-02-26T04:11:10.001Z,100425.63
2023-02-26T04:13:39.861Z,100425.53
2023-02-26T04:16:08.949Z,100424.31
2023-02-26T04:18:39.151Z,100417.53
2023-02-26T04:21:13.532Z,100424.88
2023-02-26T04:23:43.841Z,100428.88
2023-02-26T04:26:14.137Z,100431.19
2023-02-26T04:28:45.475Z,100433.84
2023-02-26T04:31:14.713Z,100434.19
2023-02-26T04:33:44.332Z,100442.53
2023-02-26T04:36:13.715Z,100448.78
2023-02-26T04:38:43.440Z,100457.38
2023-02-26T04:41:12.699Z,100436.41
2023-02-26T04:43:42.026Z,100455.63
2023-02-26T04:46:24.482Z,100455.25
2023-02-26T04:48:54.708Z,100457.50
2023-02-26T04:51:24.533Z,100449.50
2023-02-26T04:53:54.275Z,100443.34
2023-02-26T04:56:23.935Z,100446.31
2023-02-26T04:58:53.322Z,100464.19
2023-02-26T05:01:28.531Z,100463.94
2023-02-26T05:03:58.374Z,100480.47
2023-02-26T05:06:30.432Z,100476.91
2023-02-26T05:08:59.622Z,100487.66
2023-02-26T05:11:28.651Z,100471.13
2023-02-26T05:13:57.992Z,100460.75
2023-02-26T05:16:27.221Z,100486.00
2023-02-26T05:18:56.425Z,100482.09
2023-02-26T05:21:26.279Z,100473.41
2023-02-26T05:23:56.368Z,100495.59
2023-02-26T05:26:26.733Z,100494.88
2023-02-26T05:28:55.925Z,100500.59
2023-02-26T05:31:24.396Z,100503.38
2023-02-26T05:33:53.017Z,100506.91
2023-02-26T05:36:21.919Z,100510.09
2023-02-26T05:38:50.809Z,100519.41
2023-02-26T05:41:19.126Z,100526.34
2023-02-26T05:43:47.973Z,100519.41
2023-02-26T05:46:17.041Z,100510.72
2023-02-26T05:48:46.129Z,100525.03
2023-02-26T05:51:15.001Z,100526.75
2023-02-26T05:53:43.364Z,100507.53
2023-02-26T05:56:12.042Z,100516.03
2023-02-26T05:58:40.796Z,100520.47
2023-02-26T06:01:09.683Z,100511.44
2023-02-26T06:03:40.945Z,100530.25
2023-02-26T06:06:09.988Z,100527.69
2023-02-26T06:08:41.383Z,100530.22
2023-02-26T06:11:09.787Z,100531.97
2023-02-26T06:13:38.428Z,100528.53
2023-02-26T06:16:06.858Z,100537.56
2023-02-26T06:18:35.196Z,100539.25
2023-02-26T06:21:03.536Z,100534.69
2023-02-26T06:23:32.411Z,100526.44
2023-02-26T06:26:00.983Z,100519.22
2023-02-26T06:28:29.195Z,100513.25
2023-02-26T06:30:57.937Z,100531.94
2023-02-26T06:33:26.716Z,100526.97
2023-02-26T06:35:56.512Z,100522.16
2023-02-26T06:38:24.862Z,100540.16
2023-02-26T06:40:55.148Z,100532.44
2023-02-26T06:43:23.681Z,100541.31
2023-02-26T06:45:52.304Z,100531.19
2023-02-26T06:48:20.730Z,100533.44
2023-02-26T06:50:49.408Z,100537.41
2023-02-26T06:53:17.864Z,100549.44
2023-02-26T06:55:46.615Z,100546.66
2023-02-26T06:58:14.964Z,100555.28
2023-02-26T07:00:43.188Z,100556.53
2023-02-26T07:03:17.177Z,100539.19
2023-02-26T07:05:46.383Z,100548.88
2023-02-26T07:08:14.636Z,100523.88
2023-02-26T07:10:43.111Z,100533.78
2023-02-26T07:13:11.832Z,100529.97
2023-02-26T07:15:40.273Z,100532.88
2023-02-26T07:18:08.921Z,100543.28
2023-02-26T07:20:37.575Z,100532.63
2023-02-26T07:23:06.236Z,100530.94
2023-02-26T07:25:35.217Z,100545.81
2023-02-26T07:28:04.460Z,100541.69
2023-02-26T07:30:33.366Z,100533.34
2023-02-26T07:33:02.046Z,100515.34
2023-02-26T07:35:30.607Z,100530.59
2023-02-26T07:37:59.407Z,100522.00
2023-02-26T07:40:27.757Z,100528.94
2023-02-26T07:42:56.035Z,100541.22
2023-02-26T07:45:24.438Z,100540.13
2023-02-26T07:47:52.990Z,100533.31
2023-02-26T07:50:21.805Z,100537.53
2023-02-26T07:52:50.132Z,100545.50
2023-02-26T07:55:18.975Z,100541.81
2023-02-26T07:57:47.539Z,100547.13
2023-02-26T08:00:16.523Z,100560.75
2023-02-26T08:02:45.128Z,100561.94
2023-02-26T08:05:13.405Z,100570.13
2023-02-26T08:07:42.133Z,100569.84
2023-02-26T08:10:11.090Z,100571.88
2023-02-26T08:12:39.789Z,100566.00
2023-02-26T08:15:08.453Z,100568.38
2023-02-26T08:17:36.499Z,100581.16
2023-02-26T08:20:05.669Z,100569.09
2023-02-26T08:22:34.538Z,100571.13
2023-02-26T08:25:02.941Z,100569.94
2023-02-26T08:27:31.670Z,100559.53
2023-02-26T08:30:00.152Z,100552.75
2023-02-26T08:32:28.763Z,100552.53
2023-02-26T08:34:57.305Z,100561.78
2023-02-26T08:37:25.812Z,100574.94
2023-02-26T08:39:54.226Z,100570.34
2023-02-26T08:42:22.722Z,100581.38
2023-02-26T08:44:51.168Z,100568.63
2023-02-26T08:47:28.396Z,100573.31
2023-02-26T08:49:57.923Z,100588.47
2023-02-26T08:52:26.329Z,100580.06
2023-02-26T08:54:54.550Z,100591.50
2023-02-26T08:57:23.181Z,100593.63
2023-02-26T08:59:51.536Z,100599.78
2023-02-26T09:02:19.849Z,100603.91
2023-02-26T09:04:48.487Z,100602.78
2023-02-26T09:07:17.004Z,100598.63
2023-02-26T09:09:45.429Z,100608.25
2023-02-26T09:12:14.200Z,100611.88
2023-02-26T09:14:42.655Z,100618.03
2023-02-26T09:17:11.180Z,100615.69
2023-02-26T09:19:40.167Z,100640.06
2023-02-26T09:22:08.233Z,100630.31
2023-02-26T09:24:37.018Z,100639.97
2023-02-26T09:27:05.658Z,100649.88
2023-02-26T09:29:34.047Z,100660.81
2023-02-26T09:32:02.634Z,100644.19
2023-02-26T09:34:30.845Z,100667.41
2023-02-26T09:37:01.740Z,100657.38
2023-02-26T09:39:29.722Z,100660.53
2023-02-26T09:42:11.462Z,100656.53
2023-02-26T09:44:40.261Z,100667.75
2023-02-26T09:47:13.150Z,100671.81
2023-02-26T09:49:59.878Z,100669.16
2023-02-26T09:52:38.997Z,100672.00
2023-02-26T09:55:14.078Z,100674.38
2023-02-26T09:57:46.890Z,100680.28
2023-02-26T10:00:31.340Z,100685.78
2023-02-26T10:03:02.034Z,100689.22
2023-02-26T10:05:41.895Z,100691.41
2023-02-26T10:08:17.602Z,100696.47
2023-02-26T10:11:01.689Z,100706.38
2023-02-26T10:13:56.180Z,100699.16
2023-02-26T10:16:32.145Z,100707.94
2023-02-26T10:19:13.319Z,100693.72
2023-02-26T10:21:45.473Z,100699.78
2023-02-26T10:24:24.794Z,100715.38
2023-02-26T10:27:03.839Z,100726.53
2023-02-26T10:29:57.987Z,100714.78
2023-02-26T10:32:42.058Z,100724.13
2023-02-26T10:35:15.011Z,100729.81
2023-02-26T10:38:05.031Z,100729.06
2023-02-26T10:40:54.332Z,100740.34
2023-02-26T10:43:39.407Z,100744.53
2023-02-26T10:46:33.054Z,100750.94
2023-02-26T10:49:26.829Z,100744.75
2023-02-26T10:51:55.759Z,100761.88
2023-02-26T10:54:35.779Z,100758.22
2023-02-26T10:57:04.580Z,100760.16
2023-02-26T10:59:33.278Z,100750.00
2023-02-26T11:02:01.410Z,100753.94
2023-02-26T11:04:29.750Z,100757.59
2023-02-26T11:06:59.833Z,100760.59
2023-02-26T11:09:29.094Z,100752.91
2023-02-26T11:12:05.805Z,100748.31
2023-02-26T11:14:34.954Z,100749.69
2023-02-26T11:17:30.033Z,100750.13
2023-02-26T11:20:20.433Z,100753.91
2023-02-26T11:22:50.719Z,100748.53
2023-02-26T11:25:24.958Z,100759.31
2023-02-26T11:28:04.494Z,100755.28
2023-02-26T11:30:37.604Z,100766.22
2023-02-26T11:33:08.052Z,100775.81
2023-02-26T11:35:36.654Z,100771.31
2023-02-26T11:38:05.332Z,100770.63
2023-02-26T11:40:40.355Z,100789.91
2023-02-26T11:43:13.039Z,100776.34
2023-02-26T11:45:44.176Z,100785.53
2023-02-26T11:48:17.172Z,100798.75
2023-02-26T11:50:48.409Z,100810.25
2023-02-26T11:53:18.974Z,100796.00
2023-02-26T11:55:53.785Z,100809.06
2023-02-26T11:58:24.181Z,100793.16
2023-02-26T12:00:53.604Z,100810.78
2023-02-26T12:03:29.642Z,100815.16
2023-02-26T12:06:01.836Z,100817.25
2023-02-26T12:08:40.800Z,100831.44
2023-02-26T12:11:17.305Z,100810.84
2023-02-26T12:13:51.972Z,100826.53
2023-02-26T12:16:28.269Z,100819.22
2023-02-26T12:19:03.684Z,100830.78
2023-02-26T12:21:51.529Z,100831.69
2023-02-26T12:24:45.806Z,100845.03
2023-02-26T12:27:42.805Z,100848.19
2023-02-26T12:30:45.641Z,100859.59
2023-02-26T12:33:46.917Z,100867.47
2023-02-26T12:36:53.065Z,100871.28
2023-02-26T12:39:21.635Z,100874.16
2023-02-26T12:42:03.775Z,100876.00
2023-02-26T12:44:54.718Z,100881.34
2023-02-26T12:47:26.536Z,100876.16
2023-02-26T12:50:09.023Z,100873.03
2023-02-26T12:52:59.604Z,100873.66
2023-02-26T12:55:41.299Z,100866.97
2023-02-26T12:58:38.071Z,100884.56
2023-02-26T13:01:33.746Z,100891.59
2023-02-26T13:04:06.572Z,100883.00
2023-02-26T13:06:41.013Z,100885.63
2023-02-26T13:09:32.621Z,100883.28
2023-02-26T13:12:21.036Z,100882.03
2023-02-26T13:15:01.808Z,100886.28
2023-02-26T13:17:56.800Z,100891.00
2023-02-26T13:20:26.779Z,100899.09
2023-02-26T13:23:02.640Z,100901.72
2023-02-26T13:25:49.378Z,100905.09
2023-02-26T13:28:40.307Z,100911.25
2023-02-26T13:31:25.341Z,100902.69
2023-02-26T13:33:56.678Z,100892.50
2023-02-26T13:36:26.071Z,100894.22
2023-02-26T13:39:05.666Z,100883.09
2023-02-26T13:41:45.919Z,100890.78
2023-02-26T13:44:30.648Z,100878.88
2023-02-26T13:47:33.668Z,100879.88
2023-02-26T13:50:35.912Z,100885.88
2023-02-26T13:53:30.725Z,100885.06
2023-02-26T13:56:34.115Z,100874.03
2023-02-26T13:59:18.822Z,100881.75
2023-02-26T14:01:55.917Z,100885.31
2023-02-26T14:04:27.231Z,100882.81
2023-02-26T14:06:59.868Z,100882.06
2023-02-26T14:09:36.050Z,100890.63
2023-02-26T14:12:19.663Z,100893.47
2023-02-26T14:15:03.214Z,100895.31
2023-02-26T14:17:42.694Z,100892.03
2023-02-26T14:20:25.058Z,100911.94
2023-02-26T14:23:10.263Z,100904.13
2023-02-26T14:25:40.755Z,100901.63
2023-02-26T14:28:28.586Z,100894.56
2023-02-26T14:31:12.048Z,100893.69
2023-02-26T14:34:05.266Z,100886.09
2023-02-26T14:36:49.475Z,100887.00
2023-02-26T14:39:29.080Z,100891.38
2023-02-26T14:42:05.591Z,100890.56
2023-02-26T14:44:38.239Z,100898.41
2023-02-26T14:47:07.150Z,100897.50
2023-02-26T14:49:37.649Z,100899.25
2023-02-26T14:52:44.781Z,100897.19
2023-02-26T14:55:23.863Z,100899.06
2023-02-26T14:58:29.388Z,100899.81
2023-02-26T15:01:35.686Z,100902.38
2023-02-26T15:04:39.048Z,100897.88
2023-02-26T15:07:38.263Z,100901.34
2023-02-26T15:10:21.402Z,100892.75
2023-02-26T15:12:54.728Z,100902.13
2023-02-26T15:15:56.925Z,100895.47
2023-02-26T15:18:43.617Z,100904.88
2023-02-26T15:21:34.091Z,100904.13
2023-02-26T15:24:04.510Z,100924.72
2023-02-26T15:26:36.959Z,100913.41
2023-02-26T15:29:07.213Z,100916.78
2023-02-26T15:31:38.163Z,100920.22
2023-02-26T15:34:07.061Z,100916.63
2023-02-26T15:36:35.615Z,100905.16
2023-02-26T15:39:09.807Z,100905.34
2023-02-26T15:41:43.653Z,100887.78
2023-02-26T15:44:16.766Z,100892.13
2023-02-26T15:46:49.389Z,100893.81
2023-02-26T15:49:30.407Z,100896.31
2023-02-26T15:51:58.918Z,100891.19
2023-02-26T15:54:33.316Z,100884.13
2023-02-26T15:57:03.226Z,100881.56
2023-02-26T15:59:32.458Z,100879.88
2023-02-26T16:02:03.207Z,100888.50
2023-02-26T16:04:31.451Z,100879.81
2023-02-26T16:07:00.098Z,100878.00
2023-02-26T16:09:35.883Z,100878.75
2023-02-26T16:12:10.198Z,100872.50
2023-02-26T16:14:40.692Z,100884.53
2023-02-26T16:17:12.537Z,100862.84
2023-02-26T16:19:46.681Z,100868.78
2023-02-26T16:22:28.945Z,100873.84
2023-02-26T16:25:00.620Z,100869.69
2023-02-26T16:27:29.701Z,100873.94
2023-02-26T16:29:59.890Z,100871.22
2023-02-26T16:32:30.489Z,100872.69
2023-02-26T16:35:01.223Z,100862.25
2023-02-26T16:37:39.237Z,100857.72
2023-02-26T16:40:18.544Z,100873.19
2023-02-26T16:43:03.484Z,100882.69
2023-02-26T16:45:38.028Z,100881.78
2023-02-26T16:48:16.809Z,100869.69
2023-02-26T16:50:45.230Z,100864.63
2023-02-26T16:53:20.887Z,100871.47
2023-02-26T16:55:56.434Z,100865.38
2023-02-26T16:58:24.967Z,100869.63
2023-02-26T17:00:59.534Z,100865.41
2023-02-26T17:03:28.066Z,100863.78
2023-02-26T17:06:06.330Z,100860.28
2023-02-26T17:08:50.302Z,100855.13
2023-02-26T17:11:33.662Z,100860.34
2023-02-26T17:14:19.629Z,100856.75
2023-02-26T17:16:48.724Z,100866.22
2023-02-26T17:19:18.338Z,100861.94
2023-02-26T17:21:58.089Z,100854.94
2023-02-26T17:24:45.042Z,100862.56
2023-02-26T17:27:18.625Z,100863.22
2023-02-26T17:29:47.469Z,100857.91
2023-02-26T17:32:21.072Z,100856.13
2023-02-26T17:34:50.085Z,100847.22
2023-02-26T17:37:18.759Z,100843.63
2023-02-26T17:39:47.251Z,100843.44
2023-02-26T17:42:23.647Z,100851.00
2023-02-26T17:44:52.469Z,100849.16
2023-02-26T17:47:22.600Z,100847.19
2023-02-26T17:49:51.055Z,100854.03
2023-02-26T17:52:20.056Z,100837.94
2023-02-26T17:54:48.769Z,100841.16
2023-02-26T17:57:19.007Z,100838.34
2023-02-26T17:59:47.516Z,100836.16
2023-02-26T18:02:26.072Z,100841.09
2023-02-26T18:04:54.791Z,100829.59
2023-02-26T18:07:23.306Z,100849.22
2023-02-26T18:09:51.513Z,100836.94
2023-02-26T18:12:22.087Z,100839.47
2023-02-26T18:14:50.420Z,100838.41
2023-02-26T18:17:29.305Z,100841.69
2023-02-26T18:19:58.006Z,100833.94
2023-02-26T18:22:28.050Z,100829.41
2023-02-26T18:24:56.750Z,100829.28
2023-02-26T18:27:26.019Z,100825.84
2023-02-26T18:29:54.873Z,100825.97
2023-02-26T18:32:24.277Z,100824.34
2023-02-26T18:34:53.355Z,100833.09
2023-02-26T18:37:23.996Z,100830.59
2023-02-26T18:39:52.550Z,100819.22
2023-02-26T18:42:22.040Z,100819.94
2023-02-26T18:44:50.458Z,100827.28
2023-02-26T18:47:19.429Z,100834.13
2023-02-26T18:49:48.517Z,100825.63
2023-02-26T18:52:16.886Z,100804.75
2023-02-26T18:54:45.683Z,100811.75
2023-02-26T18:57:14.233Z,100812.88
2023-02-26T18:59:42.758Z,100818.06
2023-02-26T19:02:12.389Z,100809.22
2023-02-26T19:04:41.495Z,100806.63
2023-02-26T19:07:10.186Z,100803.31
2023-02-26T19:09:38.598Z,100797.00
2023-02-26T19:12:07.177Z,100798.50
2023-02-26T19:14:35.535Z,100799.69
2023-02-26T19:17:04.470Z,100799.63
2023-02-26T19:19:32.817Z,100802.63
2023-02-26T19:22:01.867Z,100802.25
2023-02-26T19:24:30.552Z,100801.69
2023-02-26T19:26:59.220Z,100802.28
2023-02-26T19:29:27.735Z,100801.81
2023-02-26T19:31:56.428Z,100783.22
2023-02-26T19:34:28.058Z,100780.44
2023-02-26T19:36:57.112Z,100779.03
2023-02-26T19:39:25.569Z,100789.19
2023-02-26T19:41:54.532Z,100777.66
2023-02-26T19:44:22.962Z,100780.16
2023-02-26T19:46:51.146Z,100787.41
2023-02-26T19:49:19.515Z,100786.41
2023-02-26T19:51:47.676Z,100784.53
2023-02-26T19:54:16.062Z,100769.84
2023-02-26T19:56:44.798Z,100774.91
2023-02-26T19:59:13.374Z,100783.38
2023-02-26T20:01:42.396Z,100763.16
2023-02-26T20:04:11.161Z,100764.94
2023-02-26T20:06:39.777Z,100771.69
2023-02-26T20:09:08.195Z,100769.72
2023-02-26T20:11:36.934Z,100770.50
2023-02-26T20:14:05.554Z,100766.84
2023-02-26T20:16:33.695Z,100772.91
2023-02-26T20:19:02.423Z,100762.13
2023-02-26T20:21:30.580Z,100747.41
2023-02-26T20:23:58.766Z,100754.97
2023-02-26T20:26:26.936Z,100745.28
2023-02-26T20:28:55.317Z,100741.88
2023-02-26T20:31:24.032Z,100739.00
2023-02-26T20:33:53.586Z,100749.16
2023-02-26T20:36:22.099Z,100724.53
2023-02-26T20:38:50.534Z,100731.81
2023-02-26T20:41:19.038Z,100719.25
2023-02-26T20:43:47.359Z,100733.06
2023-02-26T20:46:15.965Z,100722.63
2023-02-26T20:48:45.596Z,100712.16
2023-02-26T20:51:15.476Z,100713.97
2023-02-26T20:53:44.514Z,100724.53
2023-02-26T20:56:12.946Z,100729.59
2023-02-26T20:58:41.805Z,100715.78
2023-02-26T21:01:10.028Z,100702.59
2023-02-26T21:03:38.033Z,100713.06
2023-02-26T21:06:06.443Z,100699.03
2023-02-26T21:08:35.212Z,100699.84
2023-02-26T21:11:03.566Z,100691.00
2023-02-26T21:13:31.917Z,100701.63
2023-02-26T21:16:01.356Z,100702.47
2023-02-26T21:18:29.993Z,100697.47
2023-02-26T21:20:58.520Z,100696.88
2023-02-26T21:23:27.044Z,100701.22
2023-02-26T21:25:55.413Z,100705.31
2023-02-26T21:28:23.693Z,100714.06
2023-02-26T21:30:52.773Z,100688.88
2023-02-26T21:33:21.110Z,100691.59
2023-02-26T21:35:52.659Z,100691.97
2023-02-26T21:38:21.039Z,100697.22
2023-02-26T21:40:49.499Z,100696.38
2023-02-26T21:43:17.835Z,100684.88
2023-02-26T21:45:46.425Z,100684.06
2023-02-26T21:48:14.803Z,100679.50
2023-02-26T21:50:42.871Z,100693.47
2023-02-26T21:53:11.256Z,100692.38
2023-02-26T21:55:39.467Z,100692.28
2023-02-26T21:58:07.870Z,100697.19
2023-02-26T22:00:35.930Z,100688.44
2023-02-26T22:03:04.257Z,100677.25
2023-02-26T22:05:32.248Z,100676.41
2023-02-26T22:08:00.571Z,100665.88
2023-02-26T22:10:31.637Z,100670.22
2023-02-26T22:12:59.910Z,100673.63
2023-02-26T22:15:27.857Z,100679.66
2023-02-26T22:17:55.903Z,100671.63
2023-02-26T22:20:24.208Z,100675.19
2023-02-26T22:22:52.424Z,100670.53
2023-02-26T22:25:21.047Z,100660.00
2023-02-26T22:27:49.053Z,100669.59
2023-02-26T22:30:17.164Z,100667.81
2023-02-26T22:32:45.410Z,100662.41
2023-02-26T22:35:14.495Z,100667.47
2023-02-26T22:37:42.817Z,100678.53
2023-02-26T22:40:13.381Z,100664.75
2023-02-26T22:42:42.295Z,100670.78
2023-02-26T22:45:12.890Z,100670.88
2023-02-26T22:47:41.248Z,100682.63
2023-02-26T22:50:10.086Z,100682.69
2023-02-26T22:52:38.376Z,100667.22
2023-02-26T22:55:07.291Z,100675.50
2023-02-26T22:57:36.004Z,100669.44
2023-02-26T23:00:10.671Z,100659.06
2023-02-26T23:02:41.435Z,100667.06
2023-02-26T23:05:10.356Z,100658.38
2023-02-26T23:07:39.679Z,100657.19
2023-02-26T23:10:09.675Z,100655.59
2023-02-26T23:12:39.269Z,100657.19
2023-02-26T23:15:08.232Z,100653.09
2023-02-26T23:17:36.651Z,100661.94
2023-02-26T23:20:05.919Z,100647.91
2023-02-26T23:22:34.237Z,100641.88
2023-02-26T23:25:02.835Z,100656.75
2023-02-26T23:27:30.843Z,100641.72
2023-02-26T23:29:59.206Z,100651.16
2023-02-26T23:32:27.328Z,100655.59
2023-02-26T23:34:55.242Z,100652.19
2023-02-26T23:37:24.048Z,100661.78
2023-02-26T23:39:53.471Z,100667.22
2023-02-26T23:42:22.113Z,100668.75
2023-02-26T23:44:50.594Z,100654.19
2023-02-26T23:47:18.896Z,100653.28
2023-02-26T23:49:46.805Z,100648.84
2023-02-26T23:52:15.175Z,100631.25
2023-02-26T23:54:43.297Z,100629.38
2023-02-26T23:57:11.739Z,100635.59
2023-02-26T23:59:39.750Z,100627.53
